sensor_id;sensor_type;location;lat;lon;timestamp;P1;durP1;ratioP1;P2;durP2;ratioP2
48534;SDS011;34323;52.022;5.686;2023-09-19T00:02:04;5.20;;;1.17;;
48534;SDS011;34323;52.022;5.686;2023-09-19T00:04:32;6.50;;;1.67;;
48534;SDS011;34323;52.022;5.686;2023-09-19T00:06:58;3.88;;;0.93;;
48534;SDS011;34323;52.022;5.686;2023-09-19T00:09:24;4.72;;;1.45;;
48534;SDS011;34323;52.022;5.686;2023-09-19T00:11:53;10.57;;;1.60;;
48534;SDS011;34323;52.022;5.686;2023-09-19T00:14:19;6.03;;;1.30;;
48534;SDS011;34323;52.022;5.686;2023-09-19T00:16:44;4.55;;;1.40;;
48534;SDS011;34323;52.022;5.686;2023-09-19T00:19:11;5.75;;;1.42;;
48534;SDS011;34323;52.022;5.686;2023-09-19T00:21:38;6.57;;;1.73;;
48534;SDS011;34323;52.022;5.686;2023-09-19T00:24:05;5.28;;;1.80;;
48534;SDS011;34323;52.022;5.686;2023-09-19T00:26:32;5.07;;;1.23;;
48534;SDS011;34323;52.022;5.686;2023-09-19T00:28:59;7.22;;;1.60;;
48534;SDS011;34323;52.022;5.686;2023-09-19T00:31:33;9.18;;;1.98;;
48534;SDS011;34323;52.022;5.686;2023-09-19T00:33:59;5.95;;;1.50;;
48534;SDS011;34323;52.022;5.686;2023-09-19T00:36:31;7.65;;;1.77;;
48534;SDS011;34323;52.022;5.686;2023-09-19T00:38:58;7.88;;;1.98;;
48534;SDS011;34323;52.022;5.686;2023-09-19T00:41:24;5.07;;;2.17;;
48534;SDS011;34323;52.022;5.686;2023-09-19T00:43:50;6.53;;;1.92;;
48534;SDS011;34323;52.022;5.686;2023-09-19T00:46:18;7.22;;;1.90;;
48534;SDS011;34323;52.022;5.686;2023-09-19T00:48:44;8.43;;;1.90;;
48534;SDS011;34323;52.022;5.686;2023-09-19T00:51:11;9.35;;;1.83;;
48534;SDS011;34323;52.022;5.686;2023-09-19T00:53:44;9.07;;;1.67;;
48534;SDS011;34323;52.022;5.686;2023-09-19T00:56:11;4.00;;;1.52;;
48534;SDS011;34323;52.022;5.686;2023-09-19T00:58:37;11.75;;;1.58;;
48534;SDS011;34323;52.022;5.686;2023-09-19T01:01:03;5.70;;;1.58;;
48534;SDS011;34323;52.022;5.686;2023-09-19T01:03:32;10.00;;;2.30;;
48534;SDS011;34323;52.022;5.686;2023-09-19T01:05:59;7.72;;;2.58;;
48534;SDS011;34323;52.022;5.686;2023-09-19T01:08:25;6.55;;;1.77;;
48534;SDS011;34323;52.022;5.686;2023-09-19T01:10:55;13.05;;;1.88;;
48534;SDS011;34323;52.022;5.686;2023-09-19T01:13:29;6.22;;;1.85;;
48534;SDS011;34323;52.022;5.686;2023-09-19T01:16:19;9.45;;;2.13;;
48534;SDS011;34323;52.022;5.686;2023-09-19T01:30:10;15.15;;;2.72;;
48534;SDS011;34323;52.022;5.686;2023-09-19T01:32:42;10.15;;;1.63;;
48534;SDS011;34323;52.022;5.686;2023-09-19T01:35:09;14.00;;;2.20;;
48534;SDS011;34323;52.022;5.686;2023-09-19T01:37:38;11.57;;;2.72;;
48534;SDS011;34323;52.022;5.686;2023-09-19T01:40:07;13.82;;;2.42;;
48534;SDS011;34323;52.022;5.686;2023-09-19T01:42:54;8.52;;;1.98;;
48534;SDS011;34323;52.022;5.686;2023-09-19T01:48:25;14.18;;;2.10;;
48534;SDS011;34323;52.022;5.686;2023-09-19T01:51:04;10.52;;;1.67;;
48534;SDS011;34323;52.022;5.686;2023-09-19T01:56:07;15.38;;;2.47;;
48534;SDS011;34323;52.022;5.686;2023-09-19T01:58:39;15.05;;;2.17;;
48534;SDS011;34323;52.022;5.686;2023-09-19T02:01:10;20.98;;;2.95;;
48534;SDS011;34323;52.022;5.686;2023-09-19T02:03:41;6.43;;;1.77;;
48534;SDS011;34323;52.022;5.686;2023-09-19T02:06:13;13.65;;;2.33;;
48534;SDS011;34323;52.022;5.686;2023-09-19T02:08:43;19.27;;;2.92;;
48534;SDS011;34323;52.022;5.686;2023-09-19T02:11:10;11.80;;;2.83;;
48534;SDS011;34323;52.022;5.686;2023-09-19T02:13:38;11.98;;;2.70;;
48534;SDS011;34323;52.022;5.686;2023-09-19T02:16:04;10.52;;;2.13;;
48534;SDS011;34323;52.022;5.686;2023-09-19T02:18:30;7.60;;;2.13;;
48534;SDS011;34323;52.022;5.686;2023-09-19T02:20:56;6.57;;;2.03;;
48534;SDS011;34323;52.022;5.686;2023-09-19T02:23:23;8.43;;;2.35;;
48534;SDS011;34323;52.022;5.686;2023-09-19T02:25:58;13.30;;;2.33;;
48534;SDS011;34323;52.022;5.686;2023-09-19T02:28:30;9.43;;;2.15;;
48534;SDS011;34323;52.022;5.686;2023-09-19T02:30:57;10.90;;;2.03;;
48534;SDS011;34323;52.022;5.686;2023-09-19T02:33:23;7.10;;;2.60;;
48534;SDS011;34323;52.022;5.686;2023-09-19T02:35:48;12.45;;;2.50;;
48534;SDS011;34323;52.022;5.686;2023-09-19T02:38:15;8.55;;;2.35;;
48534;SDS011;34323;52.022;5.686;2023-09-19T02:40:45;12.70;;;2.42;;
48534;SDS011;34323;52.022;5.686;2023-09-19T02:43:11;12.32;;;2.15;;
48534;SDS011;34323;52.022;5.686;2023-09-19T02:45:37;7.65;;;2.13;;
48534;SDS011;34323;52.022;5.686;2023-09-19T02:48:04;9.48;;;1.92;;
48534;SDS011;34323;52.022;5.686;2023-09-19T02:50:29;8.40;;;1.73;;
48534;SDS011;34323;52.022;5.686;2023-09-19T02:52:55;8.63;;;2.13;;
48534;SDS011;34323;52.022;5.686;2023-09-19T02:55:21;12.20;;;2.35;;
48534;SDS011;34323;52.022;5.686;2023-09-19T02:57:47;13.15;;;2.25;;
48534;SDS011;34323;52.022;5.686;2023-09-19T03:00:14;7.70;;;1.92;;
48534;SDS011;34323;52.022;5.686;2023-09-19T03:02:41;11.18;;;1.80;;
48534;SDS011;34323;52.022;5.686;2023-09-19T03:05:08;8.93;;;1.63;;
48534;SDS011;34323;52.022;5.686;2023-09-19T03:07:36;11.02;;;2.47;;
48534;SDS011;34323;52.022;5.686;2023-09-19T03:10:03;9.18;;;1.60;;
48534;SDS011;34323;52.022;5.686;2023-09-19T03:12:31;15.20;;;1.95;;
48534;SDS011;34323;52.022;5.686;2023-09-19T03:14:58;11.02;;;2.28;;
48534;SDS011;34323;52.022;5.686;2023-09-19T03:17:24;10.52;;;1.98;;
48534;SDS011;34323;52.022;5.686;2023-09-19T03:19:50;11.02;;;2.45;;
48534;SDS011;34323;52.022;5.686;2023-09-19T03:22:16;18.60;;;2.45;;
48534;SDS011;34323;52.022;5.686;2023-09-19T03:24:43;18.63;;;2.60;;
48534;SDS011;34323;52.022;5.686;2023-09-19T03:27:10;12.80;;;2.55;;
48534;SDS011;34323;52.022;5.686;2023-09-19T03:29:36;19.80;;;2.50;;
48534;SDS011;34323;52.022;5.686;2023-09-19T03:32:01;13.48;;;2.40;;
48534;SDS011;34323;52.022;5.686;2023-09-19T03:34:28;12.60;;;2.28;;
48534;SDS011;34323;52.022;5.686;2023-09-19T03:36:54;9.38;;;3.05;;
48534;SDS011;34323;52.022;5.686;2023-09-19T03:39:20;15.32;;;2.28;;
48534;SDS011;34323;52.022;5.686;2023-09-19T03:41:46;13.07;;;2.20;;
48534;SDS011;34323;52.022;5.686;2023-09-19T03:44:12;14.52;;;1.77;;
48534;SDS011;34323;52.022;5.686;2023-09-19T03:46:38;24.65;;;3.15;;
48534;SDS011;34323;52.022;5.686;2023-09-19T03:49:03;24.13;;;2.92;;
48534;SDS011;34323;52.022;5.686;2023-09-19T03:51:29;9.98;;;1.70;;
48534;SDS011;34323;52.022;5.686;2023-09-19T03:53:55;9.57;;;2.03;;
48534;SDS011;34323;52.022;5.686;2023-09-19T03:56:21;5.97;;;1.77;;
48534;SDS011;34323;52.022;5.686;2023-09-19T03:58:46;9.10;;;1.83;;
48534;SDS011;34323;52.022;5.686;2023-09-19T04:01:12;10.48;;;1.73;;
48534;SDS011;34323;52.022;5.686;2023-09-19T04:03:38;11.90;;;1.92;;
48534;SDS011;34323;52.022;5.686;2023-09-19T04:06:14;5.88;;;1.77;;
48534;SDS011;34323;52.022;5.686;2023-09-19T04:08:40;7.35;;;2.13;;
48534;SDS011;34323;52.022;5.686;2023-09-19T04:11:06;12.43;;;2.03;;
48534;SDS011;34323;52.022;5.686;2023-09-19T04:13:32;8.35;;;2.15;;
48534;SDS011;34323;52.022;5.686;2023-09-19T04:15:58;9.93;;;2.90;;
48534;SDS011;34323;52.022;5.686;2023-09-19T04:18:23;7.15;;;1.80;;
48534;SDS011;34323;52.022;5.686;2023-09-19T04:20:50;7.38;;;1.92;;
48534;SDS011;34323;52.022;5.686;2023-09-19T04:23:16;14.25;;;2.47;;
48534;SDS011;34323;52.022;5.686;2023-09-19T04:25:42;7.20;;;1.65;;
48534;SDS011;34323;52.022;5.686;2023-09-19T04:28:08;8.02;;;1.70;;
48534;SDS011;34323;52.022;5.686;2023-09-19T04:30:36;11.45;;;2.45;;
48534;SDS011;34323;52.022;5.686;2023-09-19T04:33:03;7.38;;;1.73;;
48534;SDS011;34323;52.022;5.686;2023-09-19T04:35:28;6.53;;;1.85;;
48534;SDS011;34323;52.022;5.686;2023-09-19T04:37:56;8.07;;;1.73;;
48534;SDS011;34323;52.022;5.686;2023-09-19T04:40:22;8.05;;;2.03;;
48534;SDS011;34323;52.022;5.686;2023-09-19T04:42:53;9.18;;;2.15;;
48534;SDS011;34323;52.022;5.686;2023-09-19T04:45:24;10.02;;;2.20;;
48534;SDS011;34323;52.022;5.686;2023-09-19T04:47:54;7.28;;;1.50;;
48534;SDS011;34323;52.022;5.686;2023-09-19T04:50:21;8.85;;;1.85;;
48534;SDS011;34323;52.022;5.686;2023-09-19T04:52:51;11.68;;;2.15;;
48534;SDS011;34323;52.022;5.686;2023-09-19T04:55:17;12.82;;;2.67;;
48534;SDS011;34323;52.022;5.686;2023-09-19T04:57:47;8.70;;;1.98;;
48534;SDS011;34323;52.022;5.686;2023-09-19T05:00:15;8.38;;;1.88;;
48534;SDS011;34323;52.022;5.686;2023-09-19T05:02:43;12.13;;;2.60;;
48534;SDS011;34323;52.022;5.686;2023-09-19T05:05:10;8.77;;;1.95;;
48534;SDS011;34323;52.022;5.686;2023-09-19T05:07:40;13.82;;;2.00;;
48534;SDS011;34323;52.022;5.686;2023-09-19T05:10:07;6.25;;;1.88;;
48534;SDS011;34323;52.022;5.686;2023-09-19T05:12:34;7.05;;;1.52;;
48534;SDS011;34323;52.022;5.686;2023-09-19T05:15:01;4.40;;;1.30;;
48534;SDS011;34323;52.022;5.686;2023-09-19T05:17:28;7.38;;;2.20;;
48534;SDS011;34323;52.022;5.686;2023-09-19T05:19:54;7.78;;;1.92;;
48534;SDS011;34323;52.022;5.686;2023-09-19T05:22:20;8.60;;;1.88;;
48534;SDS011;34323;52.022;5.686;2023-09-19T05:24:45;12.00;;;2.72;;
48534;SDS011;34323;52.022;5.686;2023-09-19T05:27:13;7.22;;;1.83;;
48534;SDS011;34323;52.022;5.686;2023-09-19T05:29:42;9.93;;;1.85;;
48534;SDS011;34323;52.022;5.686;2023-09-19T05:32:09;11.05;;;2.05;;
48534;SDS011;34323;52.022;5.686;2023-09-19T05:34:36;9.70;;;2.03;;
48534;SDS011;34323;52.022;5.686;2023-09-19T05:37:03;9.00;;;2.17;;
48534;SDS011;34323;52.022;5.686;2023-09-19T05:39:32;11.52;;;2.70;;
48534;SDS011;34323;52.022;5.686;2023-09-19T05:41:58;18.48;;;3.45;;
48534;SDS011;34323;52.022;5.686;2023-09-19T05:44:25;9.35;;;2.08;;
48534;SDS011;34323;52.022;5.686;2023-09-19T05:46:51;6.45;;;1.75;;
48534;SDS011;34323;52.022;5.686;2023-09-19T05:49:18;13.60;;;2.75;;
48534;SDS011;34323;52.022;5.686;2023-09-19T05:51:46;12.50;;;1.50;;
48534;SDS011;34323;52.022;5.686;2023-09-19T05:54:12;10.98;;;2.05;;
48534;SDS011;34323;52.022;5.686;2023-09-19T05:56:38;8.05;;;1.73;;
48534;SDS011;34323;52.022;5.686;2023-09-19T05:59:03;8.95;;;1.67;;
48534;SDS011;34323;52.022;5.686;2023-09-19T06:01:30;5.13;;;1.35;;
48534;SDS011;34323;52.022;5.686;2023-09-19T06:03:57;8.85;;;1.98;;
48534;SDS011;34323;52.022;5.686;2023-09-19T06:06:25;8.20;;;1.65;;
48534;SDS011;34323;52.022;5.686;2023-09-19T06:08:51;8.57;;;2.08;;
48534;SDS011;34323;52.022;5.686;2023-09-19T06:11:17;9.32;;;2.42;;
48534;SDS011;34323;52.022;5.686;2023-09-19T06:13:45;7.07;;;2.25;;
48534;SDS011;34323;52.022;5.686;2023-09-19T06:16:12;16.08;;;2.35;;
48534;SDS011;34323;52.022;5.686;2023-09-19T06:18:38;8.80;;;2.38;;
48534;SDS011;34323;52.022;5.686;2023-09-19T06:21:04;11.88;;;2.15;;
48534;SDS011;34323;52.022;5.686;2023-09-19T06:23:33;12.25;;;2.05;;
48534;SDS011;34323;52.022;5.686;2023-09-19T06:26:00;11.85;;;2.03;;
48534;SDS011;34323;52.022;5.686;2023-09-19T06:28:26;10.00;;;1.83;;
48534;SDS011;34323;52.022;5.686;2023-09-19T06:30:53;8.88;;;1.90;;
48534;SDS011;34323;52.022;5.686;2023-09-19T06:33:20;9.82;;;2.67;;
48534;SDS011;34323;52.022;5.686;2023-09-19T06:35:47;13.93;;;2.55;;
48534;SDS011;34323;52.022;5.686;2023-09-19T06:38:13;14.27;;;2.03;;
48534;SDS011;34323;52.022;5.686;2023-09-19T06:40:40;13.45;;;2.40;;
48534;SDS011;34323;52.022;5.686;2023-09-19T06:43:09;14.05;;;2.00;;
48534;SDS011;34323;52.022;5.686;2023-09-19T06:45:36;9.18;;;2.22;;
48534;SDS011;34323;52.022;5.686;2023-09-19T06:48:01;9.88;;;1.73;;
48534;SDS011;34323;52.022;5.686;2023-09-19T06:50:28;7.28;;;1.92;;
48534;SDS011;34323;52.022;5.686;2023-09-19T06:52:56;14.85;;;2.42;;
48534;SDS011;34323;52.022;5.686;2023-09-19T06:55:24;10.52;;;1.90;;
48534;SDS011;34323;52.022;5.686;2023-09-19T06:57:52;11.02;;;3.13;;
48534;SDS011;34323;52.022;5.686;2023-09-19T07:00:19;5.68;;;1.90;;
48534;SDS011;34323;52.022;5.686;2023-09-19T07:02:59;9.48;;;2.22;;
48534;SDS011;34323;52.022;5.686;2023-09-19T07:05:35;10.80;;;1.92;;
48534;SDS011;34323;52.022;5.686;2023-09-19T07:08:03;8.77;;;2.17;;
48534;SDS011;34323;52.022;5.686;2023-09-19T07:10:31;10.55;;;2.03;;
48534;SDS011;34323;52.022;5.686;2023-09-19T07:13:02;8.27;;;1.98;;
48534;SDS011;34323;52.022;5.686;2023-09-19T07:15:40;9.25;;;1.77;;
48534;SDS011;34323;52.022;5.686;2023-09-19T07:18:11;13.68;;;2.55;;
48534;SDS011;34323;52.022;5.686;2023-09-19T07:20:41;16.27;;;2.55;;
48534;SDS011;34323;52.022;5.686;2023-09-19T07:23:15;7.13;;;1.65;;
48534;SDS011;34323;52.022;5.686;2023-09-19T07:25:44;14.23;;;1.95;;
48534;SDS011;34323;52.022;5.686;2023-09-19T07:28:11;9.02;;;2.22;;
48534;SDS011;34323;52.022;5.686;2023-09-19T07:30:37;11.73;;;1.85;;
48534;SDS011;34323;52.022;5.686;2023-09-19T07:33:04;12.65;;;2.30;;
48534;SDS011;34323;52.022;5.686;2023-09-19T07:35:31;11.57;;;2.65;;
48534;SDS011;34323;52.022;5.686;2023-09-19T07:37:57;13.02;;;1.92;;
48534;SDS011;34323;52.022;5.686;2023-09-19T07:40:26;12.55;;;3.15;;
48534;SDS011;34323;52.022;5.686;2023-09-19T07:42:56;8.32;;;2.20;;
48534;SDS011;34323;52.022;5.686;2023-09-19T07:45:26;7.30;;;2.20;;
48534;SDS011;34323;52.022;5.686;2023-09-19T07:47:53;10.35;;;2.10;;
48534;SDS011;34323;52.022;5.686;2023-09-19T07:50:19;11.93;;;2.17;;
48534;SDS011;34323;52.022;5.686;2023-09-19T07:52:48;12.88;;;2.10;;
48534;SDS011;34323;52.022;5.686;2023-09-19T07:55:16;9.30;;;2.00;;
48534;SDS011;34323;52.022;5.686;2023-09-19T07:57:43;9.00;;;1.85;;
48534;SDS011;34323;52.022;5.686;2023-09-19T08:00:09;7.10;;;2.50;;
48534;SDS011;34323;52.022;5.686;2023-09-19T08:02:36;13.30;;;2.78;;
48534;SDS011;34323;52.022;5.686;2023-09-19T08:05:06;13.40;;;2.22;;
48534;SDS011;34323;52.022;5.686;2023-09-19T08:07:35;7.07;;;2.30;;
48534;SDS011;34323;52.022;5.686;2023-09-19T08:10:02;14.20;;;2.63;;
48534;SDS011;34323;52.022;5.686;2023-09-19T08:12:29;14.15;;;3.15;;
48534;SDS011;34323;52.022;5.686;2023-09-19T08:14:55;7.60;;;2.10;;
48534;SDS011;34323;52.022;5.686;2023-09-19T08:17:21;17.73;;;3.42;;
48534;SDS011;34323;52.022;5.686;2023-09-19T08:19:50;9.82;;;2.25;;
48534;SDS011;34323;52.022;5.686;2023-09-19T08:22:18;10.60;;;2.08;;
48534;SDS011;34323;52.022;5.686;2023-09-19T08:24:45;13.27;;;2.63;;
48534;SDS011;34323;52.022;5.686;2023-09-19T08:27:13;14.13;;;2.38;;
48534;SDS011;34323;52.022;5.686;2023-09-19T08:29:38;13.57;;;2.40;;
48534;SDS011;34323;52.022;5.686;2023-09-19T08:32:04;21.13;;;3.05;;
48534;SDS011;34323;52.022;5.686;2023-09-19T08:34:30;16.42;;;2.83;;
48534;SDS011;34323;52.022;5.686;2023-09-19T08:37:00;10.10;;;2.25;;
48534;SDS011;34323;52.022;5.686;2023-09-19T08:39:26;9.65;;;2.35;;
48534;SDS011;34323;52.022;5.686;2023-09-19T08:42:01;16.33;;;2.88;;
48534;SDS011;34323;52.022;5.686;2023-09-19T08:44:28;16.23;;;2.97;;
48534;SDS011;34323;52.022;5.686;2023-09-19T08:46:56;17.38;;;3.58;;
48534;SDS011;34323;52.022;5.686;2023-09-19T08:49:36;20.55;;;2.47;;
48534;SDS011;34323;52.022;5.686;2023-09-19T08:52:16;20.20;;;2.90;;
48534;SDS011;34323;52.022;5.686;2023-09-19T08:54:46;16.38;;;2.65;;
48534;SDS011;34323;52.022;5.686;2023-09-19T08:57:16;17.10;;;2.63;;
48534;SDS011;34323;52.022;5.686;2023-09-19T08:59:47;11.05;;;2.22;;
48534;SDS011;34323;52.022;5.686;2023-09-19T09:02:17;17.67;;;2.63;;
48534;SDS011;34323;52.022;5.686;2023-09-19T09:04:45;13.40;;;3.13;;
48534;SDS011;34323;52.022;5.686;2023-09-19T09:07:12;11.68;;;3.83;;
48534;SDS011;34323;52.022;5.686;2023-09-19T09:09:39;14.90;;;2.25;;
48534;SDS011;34323;52.022;5.686;2023-09-19T09:12:12;18.02;;;2.53;;
48534;SDS011;34323;52.022;5.686;2023-09-19T09:14:45;14.77;;;2.63;;
48534;SDS011;34323;52.022;5.686;2023-09-19T09:17:15;11.63;;;2.58;;
48534;SDS011;34323;52.022;5.686;2023-09-19T09:19:42;8.18;;;1.85;;
48534;SDS011;34323;52.022;5.686;2023-09-19T09:22:08;11.40;;;2.10;;
48534;SDS011;34323;52.022;5.686;2023-09-19T09:24:36;13.63;;;2.42;;
48534;SDS011;34323;52.022;5.686;2023-09-19T09:27:04;8.15;;;2.33;;
48534;SDS011;34323;52.022;5.686;2023-09-19T09:32:18;13.35;;;2.85;;
48534;SDS011;34323;52.022;5.686;2023-09-19T09:34:45;6.75;;;1.77;;
48534;SDS011;34323;52.022;5.686;2023-09-19T09:37:22;6.75;;;1.80;;
48534;SDS011;34323;52.022;5.686;2023-09-19T09:39:57;7.35;;;1.58;;
48534;SDS011;34323;52.022;5.686;2023-09-19T09:42:42;10.45;;;2.10;;
48534;SDS011;34323;52.022;5.686;2023-09-19T09:45:18;13.35;;;2.72;;
48534;SDS011;34323;52.022;5.686;2023-09-19T09:48:02;8.93;;;2.10;;
48534;SDS011;34323;52.022;5.686;2023-09-19T09:50:29;9.23;;;2.42;;
48534;SDS011;34323;52.022;5.686;2023-09-19T09:56:00;12.23;;;2.42;;
48534;SDS011;34323;52.022;5.686;2023-09-19T09:58:31;14.50;;;2.15;;
48534;SDS011;34323;52.022;5.686;2023-09-19T10:00:58;19.10;;;3.00;;
48534;SDS011;34323;52.022;5.686;2023-09-19T10:03:35;12.95;;;2.05;;
48534;SDS011;34323;52.022;5.686;2023-09-19T10:06:11;15.55;;;2.47;;
48534;SDS011;34323;52.022;5.686;2023-09-19T10:09:00;7.45;;;1.80;;
48534;SDS011;34323;52.022;5.686;2023-09-19T10:11:35;9.30;;;2.53;;
48534;SDS011;34323;52.022;5.686;2023-09-19T10:14:12;13.00;;;3.40;;
48534;SDS011;34323;52.022;5.686;2023-09-19T10:16:45;11.38;;;2.15;;
48534;SDS011;34323;52.022;5.686;2023-09-19T10:19:14;15.52;;;2.53;;
48534;SDS011;34323;52.022;5.686;2023-09-19T10:21:59;10.88;;;2.08;;
48534;SDS011;34323;52.022;5.686;2023-09-19T10:24:27;12.88;;;2.13;;
48534;SDS011;34323;52.022;5.686;2023-09-19T10:26:53;6.95;;;2.30;;
48534;SDS011;34323;52.022;5.686;2023-09-19T10:29:21;12.20;;;2.28;;
48534;SDS011;34323;52.022;5.686;2023-09-19T10:31:47;11.73;;;1.58;;
48534;SDS011;34323;52.022;5.686;2023-09-19T10:34:15;7.03;;;1.70;;
48534;SDS011;34323;52.022;5.686;2023-09-19T10:36:46;7.78;;;2.17;;
48534;SDS011;34323;52.022;5.686;2023-09-19T10:39:15;12.10;;;2.30;;
48534;SDS011;34323;52.022;5.686;2023-09-19T10:41:47;19.98;;;3.10;;
48534;SDS011;34323;52.022;5.686;2023-09-19T10:44:25;5.25;;;1.65;;
48534;SDS011;34323;52.022;5.686;2023-09-19T10:46:53;13.32;;;2.92;;
48534;SDS011;34323;52.022;5.686;2023-09-19T10:49:20;15.07;;;2.75;;
48534;SDS011;34323;52.022;5.686;2023-09-19T10:51:47;9.07;;;2.22;;
48534;SDS011;34323;52.022;5.686;2023-09-19T10:54:18;6.45;;;1.63;;
48534;SDS011;34323;52.022;5.686;2023-09-19T10:56:52;13.60;;;2.72;;
48534;SDS011;34323;52.022;5.686;2023-09-19T10:59:19;9.02;;;1.80;;
48534;SDS011;34323;52.022;5.686;2023-09-19T11:01:50;12.93;;;2.13;;
48534;SDS011;34323;52.022;5.686;2023-09-19T11:04:24;10.13;;;2.20;;
48534;SDS011;34323;52.022;5.686;2023-09-19T11:07:11;9.13;;;2.17;;
48534;SDS011;34323;52.022;5.686;2023-09-19T11:09:46;6.82;;;2.00;;
48534;SDS011;34323;52.022;5.686;2023-09-19T11:14:57;9.02;;;2.42;;
48534;SDS011;34323;52.022;5.686;2023-09-19T11:25:41;11.57;;;2.08;;
48534;SDS011;34323;52.022;5.686;2023-09-19T11:30:42;8.82;;;2.65;;
48534;SDS011;34323;52.022;5.686;2023-09-19T11:33:17;5.95;;;1.33;;
48534;SDS011;34323;52.022;5.686;2023-09-19T11:46:35;4.57;;;1.50;;
48534;SDS011;34323;52.022;5.686;2023-09-19T11:49:24;9.25;;;2.00;;
48534;SDS011;34323;52.022;5.686;2023-09-19T11:51:55;8.50;;;1.88;;
48534;SDS011;34323;52.022;5.686;2023-09-19T11:54:22;8.20;;;1.98;;
48534;SDS011;34323;52.022;5.686;2023-09-19T11:56:50;8.98;;;1.98;;
48534;SDS011;34323;52.022;5.686;2023-09-19T11:59:28;6.72;;;1.45;;
48534;SDS011;34323;52.022;5.686;2023-09-19T12:02:05;5.80;;;1.60;;
48534;SDS011;34323;52.022;5.686;2023-09-19T12:07:09;4.97;;;1.48;;
48534;SDS011;34323;52.022;5.686;2023-09-19T12:12:19;10.05;;;1.50;;
48534;SDS011;34323;52.022;5.686;2023-09-19T12:14:49;9.40;;;1.42;;
48534;SDS011;34323;52.022;5.686;2023-09-19T12:17:19;5.28;;;1.55;;
48534;SDS011;34323;52.022;5.686;2023-09-19T12:22:15;6.53;;;1.42;;
48534;SDS011;34323;52.022;5.686;2023-09-19T12:24:43;11.40;;;2.25;;
48534;SDS011;34323;52.022;5.686;2023-09-19T12:27:09;8.30;;;1.33;;
48534;SDS011;34323;52.022;5.686;2023-09-19T12:32:15;7.30;;;1.30;;
48534;SDS011;34323;52.022;5.686;2023-09-19T12:34:52;4.90;;;2.35;;
48534;SDS011;34323;52.022;5.686;2023-09-19T12:37:19;7.47;;;1.90;;
48534;SDS011;34323;52.022;5.686;2023-09-19T12:39:48;5.18;;;1.35;;
48534;SDS011;34323;52.022;5.686;2023-09-19T12:42:17;3.97;;;1.77;;
48534;SDS011;34323;52.022;5.686;2023-09-19T12:44:46;7.65;;;1.95;;
48534;SDS011;34323;52.022;5.686;2023-09-19T12:47:21;5.10;;;1.20;;
48534;SDS011;34323;52.022;5.686;2023-09-19T12:52:38;3.88;;;1.15;;
48534;SDS011;34323;52.022;5.686;2023-09-19T12:55:05;7.85;;;1.02;;
48534;SDS011;34323;52.022;5.686;2023-09-19T12:57:36;9.05;;;1.50;;
48534;SDS011;34323;52.022;5.686;2023-09-19T13:00:02;2.97;;;1.10;;
48534;SDS011;34323;52.022;5.686;2023-09-19T13:02:31;4.50;;;1.13;;
48534;SDS011;34323;52.022;5.686;2023-09-19T13:04:57;5.13;;;1.23;;
48534;SDS011;34323;52.022;5.686;2023-09-19T13:07:43;4.90;;;1.13;;
48534;SDS011;34323;52.022;5.686;2023-09-19T13:10:12;3.80;;;1.13;;
48534;SDS011;34323;52.022;5.686;2023-09-19T13:12:42;3.78;;;1.08;;
48534;SDS011;34323;52.022;5.686;2023-09-19T13:15:15;2.50;;;1.00;;
48534;SDS011;34323;52.022;5.686;2023-09-19T13:17:49;4.38;;;0.95;;
48534;SDS011;34323;52.022;5.686;2023-09-19T13:20:21;5.78;;;1.20;;
48534;SDS011;34323;52.022;5.686;2023-09-19T13:22:52;5.25;;;1.55;;
48534;SDS011;34323;52.022;5.686;2023-09-19T13:25:23;3.08;;;1.13;;
48534;SDS011;34323;52.022;5.686;2023-09-19T13:27:51;3.58;;;1.00;;
48534;SDS011;34323;52.022;5.686;2023-09-19T13:30:21;5.30;;;1.45;;
48534;SDS011;34323;52.022;5.686;2023-09-19T13:32:48;2.13;;;0.85;;
48534;SDS011;34323;52.022;5.686;2023-09-19T13:35:14;4.47;;;1.13;;
48534;SDS011;34323;52.022;5.686;2023-09-19T13:37:41;3.53;;;1.20;;
48534;SDS011;34323;52.022;5.686;2023-09-19T13:40:08;6.53;;;1.35;;
48534;SDS011;34323;52.022;5.686;2023-09-19T13:42:38;5.45;;;1.20;;
48534;SDS011;34323;52.022;5.686;2023-09-19T13:45:05;7.72;;;1.00;;
48534;SDS011;34323;52.022;5.686;2023-09-19T13:47:35;6.53;;;1.30;;
48534;SDS011;34323;52.022;5.686;2023-09-19T13:50:03;7.53;;;1.17;;
48534;SDS011;34323;52.022;5.686;2023-09-19T13:52:30;2.63;;;1.13;;
48534;SDS011;34323;52.022;5.686;2023-09-19T13:54:56;6.25;;;1.48;;
48534;SDS011;34323;52.022;5.686;2023-09-19T13:57:23;7.28;;;1.40;;
48534;SDS011;34323;52.022;5.686;2023-09-19T13:59:49;6.40;;;1.35;;
48534;SDS011;34323;52.022;5.686;2023-09-19T14:02:16;4.20;;;1.15;;
48534;SDS011;34323;52.022;5.686;2023-09-19T14:04:48;3.08;;;0.82;;
48534;SDS011;34323;52.022;5.686;2023-09-19T14:07:14;5.25;;;1.92;;
48534;SDS011;34323;52.022;5.686;2023-09-19T14:09:40;4.97;;;1.05;;
48534;SDS011;34323;52.022;5.686;2023-09-19T14:12:06;2.13;;;0.80;;
48534;SDS011;34323;52.022;5.686;2023-09-19T14:14:32;4.65;;;0.82;;
48534;SDS011;34323;52.022;5.686;2023-09-19T14:16:58;3.00;;;0.88;;
48534;SDS011;34323;52.022;5.686;2023-09-19T14:19:28;3.28;;;1.10;;
48534;SDS011;34323;52.022;5.686;2023-09-19T14:21:54;3.33;;;0.80;;
48534;SDS011;34323;52.022;5.686;2023-09-19T14:24:20;1.80;;;0.63;;
48534;SDS011;34323;52.022;5.686;2023-09-19T14:26:47;5.95;;;1.20;;
48534;SDS011;34323;52.022;5.686;2023-09-19T14:29:14;2.58;;;0.80;;
48534;SDS011;34323;52.022;5.686;2023-09-19T14:31:41;3.92;;;1.30;;
48534;SDS011;34323;52.022;5.686;2023-09-19T14:34:07;4.32;;;1.02;;
48534;SDS011;34323;52.022;5.686;2023-09-19T14:36:35;2.75;;;0.90;;
48534;SDS011;34323;52.022;5.686;2023-09-19T14:39:01;10.55;;;1.08;;
48534;SDS011;34323;52.022;5.686;2023-09-19T14:41:28;4.00;;;1.17;;
48534;SDS011;34323;52.022;5.686;2023-09-19T14:43:55;5.30;;;1.25;;
48534;SDS011;34323;52.022;5.686;2023-09-19T14:46:21;5.72;;;1.35;;
48534;SDS011;34323;52.022;5.686;2023-09-19T14:48:49;4.82;;;1.10;;
48534;SDS011;34323;52.022;5.686;2023-09-19T14:51:18;6.00;;;1.15;;
48534;SDS011;34323;52.022;5.686;2023-09-19T14:53:44;5.28;;;1.30;;
48534;SDS011;34323;52.022;5.686;2023-09-19T14:56:11;9.75;;;1.33;;
48534;SDS011;34323;52.022;5.686;2023-09-19T14:58:42;2.88;;;1.02;;
48534;SDS011;34323;52.022;5.686;2023-09-19T15:01:09;6.28;;;1.23;;
48534;SDS011;34323;52.022;5.686;2023-09-19T15:03:36;5.95;;;1.38;;
48534;SDS011;34323;52.022;5.686;2023-09-19T15:06:04;3.90;;;1.10;;
48534;SDS011;34323;52.022;5.686;2023-09-19T15:08:32;7.00;;;1.10;;
48534;SDS011;34323;52.022;5.686;2023-09-19T15:11:03;3.20;;;1.25;;
48534;SDS011;34323;52.022;5.686;2023-09-19T15:13:30;2.97;;;0.80;;
48534;SDS011;34323;52.022;5.686;2023-09-19T15:16:00;4.70;;;1.23;;
48534;SDS011;34323;52.022;5.686;2023-09-19T15:18:27;5.65;;;1.00;;
48534;SDS011;34323;52.022;5.686;2023-09-19T15:20:55;6.15;;;1.05;;
48534;SDS011;34323;52.022;5.686;2023-09-19T15:23:22;6.60;;;1.45;;
48534;SDS011;34323;52.022;5.686;2023-09-19T15:25:48;3.03;;;1.08;;
48534;SDS011;34323;52.022;5.686;2023-09-19T15:28:14;7.50;;;1.13;;
48534;SDS011;34323;52.022;5.686;2023-09-19T15:30:40;2.42;;;1.33;;
48534;SDS011;34323;52.022;5.686;2023-09-19T15:33:06;7.85;;;1.30;;
48534;SDS011;34323;52.022;5.686;2023-09-19T15:35:32;3.05;;;0.90;;
48534;SDS011;34323;52.022;5.686;2023-09-19T15:37:58;11.65;;;1.40;;
48534;SDS011;34323;52.022;5.686;2023-09-19T15:40:25;5.03;;;1.77;;
48534;SDS011;34323;52.022;5.686;2023-09-19T15:42:52;4.78;;;1.00;;
48534;SDS011;34323;52.022;5.686;2023-09-19T15:45:19;7.70;;;1.60;;
48534;SDS011;34323;52.022;5.686;2023-09-19T15:47:45;6.43;;;0.77;;
48534;SDS011;34323;52.022;5.686;2023-09-19T15:50:11;7.22;;;1.42;;
48534;SDS011;34323;52.022;5.686;2023-09-19T15:52:40;4.90;;;0.98;;